Time;durP1;ratioP1;P1;durP2;ratioP2;P2;SDS_P1;SDS_P2;PMS_P1;PMS_P2;Temp;Humidity;BMP_temperature;BMP_pressure;BME280_temperature;BME280_humidity;BME280_pressure;Samples;Min_cycle;Max_cycle;Signal;HPM_P1;HPM_P2
2022/07/27 00:02:06;;;;;;;;;;;;;;;-144.99;100.00;61100.13;5103199;28;19924;-61
2022/07/27 00:04:33;;;;;;;;;;;;;;;-144.99;100.00;61100.13;5107693;28;19932;-64
2022/07/27 00:07:01;;;;;;;;;;;;;;;-144.99;100.00;61100.13;5103731;28;20381;-60
2022/07/27 00:09:27;;;;;;;;;;;;;;;-144.99;100.00;61100.13;5097066;28;19964;-60
2022/07/27 00:11:54;;;;;;;;;;;;;;;-144.99;100.00;61100.13;5095241;28;19924;-60
2022/07/27 00:14:20;;;;;;;;;;;;;;;-144.99;100.00;61100.13;5103706;28;19923;-60
2022/07/27 00:16:47;;;;;;;;;;;;;;;-144.99;100.00;61100.13;5100590;28;20465;-61
2022/07/27 00:19:13;;;;;;;;;;;;;;;-144.99;100.00;61100.13;5104917;28;19927;-60
2022/07/27 00:21:40;;;;;;;;;;;;;;;-144.99;100.00;61100.13;5099890;28;20344;-61
2022/07/27 00:24:08;;;;;;;;;;;;;;;-144.99;100.00;61100.13;5104285;28;20008;-61
2022/07/27 00:26:35;;;;;;;;;;;;;;;-144.99;100.00;61100.13;5099360;28;19928;-60
2022/07/27 00:29:01;;;;;;;;;;;;;;;-144.99;100.00;61100.13;5104264;28;19981;-60
2022/07/27 00:31:28;;;;;;;;;;;;;;;-144.99;100.00;61100.13;5092449;28;20355;-59
2022/07/27 00:33:54;;;;;;;;;;;;;;;-144.99;100.00;61100.13;5088435;28;19994;-60
2022/07/27 00:36:20;;;;;;;;;;;;;;;-144.99;100.00;61100.13;5098807;28;19969;-60
2022/07/27 00:38:47;;;;;;;;;;;;;;;-144.99;100.00;61100.13;5104965;28;20321;-60
2022/07/27 00:41:15;;;;;;;;;;;;;;;-144.99;100.00;61100.13;5099710;28;19967;-60
2022/07/27 00:43:52;;;;;;;;;;;;;;;-144.99;100.00;61100.13;5097781;28;20018;-60
2022/07/27 00:46:18;;;;;;;;;;;;;;;-144.99;100.00;61100.13;5099952;28;19970;-60
2022/07/27 00:48:45;;;;;;;;;;;;;;;-144.99;100.00;61100.13;5103672;28;20415;-62
2022/07/27 00:51:11;;;;;;;;;;;;;;;-144.99;100.00;61100.13;5090455;28;19951;-60
2022/07/27 00:53:38;;;;;;;;;;;;;;;-144.99;100.00;61100.13;5097836;28;20014;-60
2022/07/27 00:56:05;;;;;;;;;;;;;;;-144.99;100.00;61100.13;5093409;28;20467;-60
2022/07/27 00:58:33;;;;;;;;;;;;;;;-144.99;100.00;61100.13;5104480;28;20363;-60
2022/07/27 01:00:59;;;;;;;;;;;;;;;-144.99;100.00;61100.13;5104349;28;19924;-60
2022/07/27 01:03:26;;;;;;;;;;;;;;;-144.99;100.00;61100.13;5109510;28;19974;-60
2022/07/27 01:05:53;;;;;;;;;;;;;;;-144.99;100.00;61100.13;5114903;28;19957;-62
2022/07/27 01:08:19;;;;;;;;;;;;;;;-144.99;100.00;61100.13;5106783;28;19931;-62
2022/07/27 01:10:46;;;;;;;;;;;;;;;-144.99;100.00;61100.13;5098563;28;19924;-62
2022/07/27 01:13:13;;;;;;;;;;;;;;;-144.99;100.00;61100.13;5109139;28;19950;-62
2022/07/27 01:15:41;;;;;;;;;;;;;;;-144.99;100.00;61100.13;5113046;28;19930;-67
2022/07/27 01:18:10;;;;;;;;;;;;;;;-144.99;100.00;61100.13;5121582;28;19924;-67
2022/07/27 01:20:37;;;;;;;;;;;;;;;-144.99;100.00;61100.13;5113996;28;20007;-66
2022/07/27 01:23:05;;;;;;;;;;;;;;;-144.99;100.00;61100.13;5122036;28;19979;-65
2022/07/27 01:25:31;;;;;;;;;;;;;;;-144.99;100.00;61100.13;5116681;28;20006;-64
2022/07/27 01:27:58;;;;;;;;;;;;;;;-144.99;100.00;61100.13;5115373;28;19959;-65
2022/07/27 01:30:28;;;;;;;;;;;;;;;-144.99;100.00;61100.13;5117723;28;19931;-64
2022/07/27 01:32:59;;;;;;;;;;;;;;;-144.99;100.00;61100.13;5111380;28;19924;-64
2022/07/27 01:35:26;;;;;;;;;;;;;;;-144.99;100.00;61100.13;5118501;28;19916;-65
2022/07/27 01:37:52;;;;;;;;;;;;;;;-144.99;100.00;61100.13;5115333;28;19948;-66
2022/07/27 01:40:20;;;;;;;;;;;;;;;-144.99;100.00;61100.13;5122408;28;20194;-66
2022/07/27 01:42:47;;;;;;;;;;;;;;;-144.99;100.00;61100.13;5114888;28;19946;-66
2022/07/27 01:45:13;;;;;;;;;;;;;;;-144.99;100.00;61100.13;5116743;28;19952;-65
2022/07/27 01:47:39;;;;;;;;;;;;;;;-144.99;100.00;61100.13;5110445;28;19981;-65
2022/07/27 01:50:06;;;;;;;;;;;;;;;-144.99;100.00;61100.13;5100025;28;19924;-66
2022/07/27 01:52:33;;;;;;;;;;;;;;;-144.99;100.00;61100.13;5100220;28;20441;-64
2022/07/27 01:54:59;;;;;;;;;;;;;;;-144.99;100.00;61100.13;5100138;28;20007;-64
2022/07/27 01:57:27;;;;;;;;;;;;;;;-144.99;100.00;61100.13;5103347;28;20311;-63
2022/07/27 01:59:54;;;;;;;;;;;;;;;-144.99;100.00;61100.13;5109106;28;19972;-63
2022/07/27 02:02:20;;;;;;;;;;;;;;;-144.99;100.00;61100.13;5105038;28;19975;-63
2022/07/27 02:04:47;;;;;;;;;;;;;;;-144.99;100.00;61100.13;5108586;28;19927;-63
2022/07/27 02:07:13;;;;;;;;;;;;;;;-144.99;100.00;61100.13;5104765;28;19973;-62
2022/07/27 02:09:40;;;;;;;;;;;;;;;-144.99;100.00;61100.13;5094686;28;19931;-63
2022/07/27 02:14:51;;;;;;;;;;;;;;;-144.99;100.00;61100.13;5102594;28;20429;-63
2022/07/27 02:17:18;;;;;;;;;;;;;;;-144.99;100.00;61100.13;5102689;28;20026;-63
2022/07/27 02:19:44;;;;;;;;;;;;;;;-144.99;100.00;61100.13;5103255;28;19932;-63
2022/07/27 02:22:11;;;;;;;;;;;;;;;-144.99;100.00;61100.13;5102745;28;19971;-62
2022/07/27 02:24:38;;;;;;;;;;;;;;;-144.99;100.00;61100.13;5103009;28;20401;-63
2022/07/27 02:27:04;;;;;;;;;;;;;;;-144.99;100.00;61100.13;5102830;28;19962;-63
2022/07/27 02:29:31;;;;;;;;;;;;;;;-144.99;100.00;61100.13;5102060;28;20354;-63
2022/07/27 02:31:58;;;;;;;;;;;;;;;-144.99;100.00;61100.13;5098924;28;19997;-63
2022/07/27 02:34:25;;;;;;;;;;;;;;;-144.99;100.00;61100.13;5101781;28;19953;-63
2022/07/27 02:36:51;;;;;;;;;;;;;;;-144.99;100.00;61100.13;5098550;28;20023;-62
2022/07/27 02:39:18;;;;;;;;;;;;;;;-144.99;100.00;61100.13;5098399;28;19931;-64
2022/07/27 02:41:45;;;;;;;;;;;;;;;-144.99;100.00;61100.13;5104025;28;19923;-62
2022/07/27 02:44:13;;;;;;;;;;;;;;;-144.99;100.00;61100.13;5095114;28;19935;-62
2022/07/27 02:46:39;;;;;;;;;;;;;;;-144.99;100.00;61100.13;5104490;28;20569;-63
2022/07/27 02:49:07;;;;;;;;;;;;;;;-144.99;100.00;61100.13;5100481;28;20011;-60
2022/07/27 02:51:35;;;;;;;;;;;;;;;-144.99;100.00;61100.13;5091306;28;20026;-60
2022/07/27 02:54:01;;;;;;;;;;;;;;;-144.99;100.00;61100.13;5099418;28;20261;-61
2022/07/27 02:56:28;;;;;;;;;;;;;;;-144.99;100.00;61100.13;5105807;28;20023;-59
2022/07/27 02:58:55;;;;;;;;;;;;;;;-144.99;100.00;61100.13;5104223;28;19946;-59
2022/07/27 03:01:21;;;;;;;;;;;;;;;-144.99;100.00;61100.13;5107217;28;20439;-59
2022/07/27 03:03:48;;;;;;;;;;;;;;;-144.99;100.00;61100.13;5109984;22;20134;-59
2022/07/27 03:06:16;;;;;;;;;;;;;;;-144.99;100.00;61100.13;5073489;28;20333;-65
2022/07/27 03:08:42;;;;;;;;;;;;;;;-144.99;100.00;61100.13;5073187;28;20022;-66
2022/07/27 03:11:09;;;;;;;;;;;;;;;-144.99;100.00;61100.13;5058029;28;19970;-65
2022/07/27 03:13:35;;;;;;;;;;;;;;;-144.99;100.00;61100.13;5058712;28;19929;-65
2022/07/27 03:16:02;;;;;;;;;;;;;;;-144.99;100.00;61100.13;5063462;28;20418;-65
2022/07/27 03:18:28;;;;;;;;;;;;;;;-144.99;100.00;61100.13;5059328;28;19929;-64
2022/07/27 03:20:55;;;;;;;;;;;;;;;-144.99;100.00;61100.13;5065365;28;20028;-65
2022/07/27 03:23:23;;;;;;;;;;;;;;;-144.99;100.00;61100.13;5059763;28;19964;-64
2022/07/27 03:25:49;;;;;;;;;;;;;;;-144.99;100.00;61100.13;5065884;28;19931;-65
2022/07/27 03:28:16;;;;;;;;;;;;;;;-144.99;100.00;61100.13;5059077;28;19925;-64
2022/07/27 03:30:42;;;;;;;;;;;;;;;-144.99;100.00;61100.13;5061827;28;19925;-65
2022/07/27 03:33:09;;;;;;;;;;;;;;;-144.99;100.00;61100.13;5052122;28;20019;-65
2022/07/27 03:35:35;;;;;;;;;;;;;;;-144.99;100.00;61100.13;5064979;28;19967;-64
2022/07/27 03:38:02;;;;;;;;;;;;;;;-144.99;100.00;61100.13;5060181;28;19964;-66
2022/07/27 03:40:31;;;;;;;;;;;;;;;-144.99;100.00;61100.13;5065013;28;19994;-66
2022/07/27 03:42:58;;;;;;;;;;;;;;;-144.99;100.00;61100.13;5059996;28;19967;-64
2022/07/27 03:45:24;;;;;;;;;;;;;;;-144.99;100.00;61100.13;5058874;28;19928;-67
2022/07/27 03:47:51;;;;;;;;;;;;;;;-144.99;100.00;61100.13;5060754;28;20229;-64
2022/07/27 03:50:17;;;;;;;;;;;;;;;-144.99;100.00;61100.13;5056367;28;19925;-66
2022/07/27 03:52:43;;;;;;;;;;;;;;;-144.99;100.00;61100.13;5055826;28;19925;-66
2022/07/27 03:55:10;;;;;;;;;;;;;;;-144.99;100.00;61100.13;5057276;28;20002;-66
2022/07/27 03:57:38;;;;;;;;;;;;;;;-144.99;100.00;61100.13;5056207;28;19987;-67
2022/07/27 04:00:05;;;;;;;;;;;;;;;-144.99;100.00;61100.13;5059905;28;20008;-65
2022/07/27 04:02:32;;;;;;;;;;;;;;;-144.99;100.00;61100.13;5063899;28;19924;-63
2022/07/27 04:04:58;;;;;;;;;;;;;;;-144.99;100.00;61100.13;5066187;28;20003;-65
2022/07/27 04:07:25;;;;;;;;;;;;;;;-144.99;100.00;61100.13;5064191;28;20070;-65
2022/07/27 04:09:51;;;;;;;;;;;;;;;-144.99;100.00;61100.13;5059693;28;20019;-65
2022/07/27 04:12:18;;;;;;;;;;;;;;;-144.99;100.00;61100.13;5060933;28;19929;-65
2022/07/27 04:14:46;;;;;;;;;;;;;;;-144.99;100.00;61100.13;5063999;28;19963;-65
2022/07/27 04:17:12;;;;;;;;;;;;;;;-144.99;100.00;61100.13;5061352;28;19932;-64
2022/07/27 04:19:39;;;;;;;;;;;;;;;-144.99;100.00;61100.13;5063823;28;20443;-65
2022/07/27 04:22:05;;;;;;;;;;;;;;;-144.99;100.00;61100.13;5060284;28;20113;-65
2022/07/27 04:24:32;;;;;;;;;;;;;;;-144.99;100.00;61100.13;5062510;28;19928;-65
2022/07/27 04:26:58;;;;;;;;;;;;;;;-144.99;100.00;61100.13;5057095;28;19947;-65
2022/07/27 04:29:25;;;;;;;;;;;;;;;-144.99;100.00;61100.13;5054908;28;20396;-65
2022/07/27 04:31:52;;;;;;;;;;;;;;;-144.99;100.00;61100.13;5048802;28;19925;-64
2022/07/27 04:34:19;;;;;;;;;;;;;;;-144.99;100.00;61100.13;5049945;28;19983;-65
2022/07/27 04:36:45;;;;;;;;;;;;;;;-144.99;100.00;61100.13;5049669;28;19964;-64
2022/07/27 04:39:12;;;;;;;;;;;;;;;-144.99;100.00;61100.13;5049627;28;20393;-64
2022/07/27 04:41:38;;;;;;;;;;;;;;;-144.99;100.00;61100.13;5049974;28;19971;-64
2022/07/27 04:44:05;;;;;;;;;;;;;;;-144.99;100.00;61100.13;5049617;28;19925;-64
2022/07/27 04:46:31;;;;;;;;;;;;;;;-144.99;100.00;61100.13;5049551;28;19979;-64
2022/07/27 04:48:59;;;;;;;;;;;;;;;-144.99;100.00;61100.13;5049655;28;19964;-64
2022/07/27 04:51:26;;;;;;;;;;;;;;;-144.99;100.00;61100.13;5049277;28;19952;-64
2022/07/27 04:53:52;;;;;;;;;;;;;;;-144.99;100.00;61100.13;5049430;28;20020;-64
2022/07/27 04:56:19;;;;;;;;;;;;;;;-144.99;100.00;61100.13;5049914;28;20027;-64
2022/07/27 04:58:46;;;;;;;;;;;;;;;-144.99;100.00;61100.13;5049531;28;19925;-63
2022/07/27 05:01:12;;;;;;;;;;;;;;;-144.99;100.00;61100.13;5049318;28;20027;-64
2022/07/27 05:03:39;;;;;;;;;;;;;;;-144.99;100.00;61100.13;5049137;28;19978;-63
2022/07/27 05:06:07;;;;;;;;;;;;;;;-144.99;100.00;61100.13;5049045;28;19924;-62
2022/07/27 05:08:34;;;;;;;;;;;;;;;-144.99;100.00;61100.13;5049279;28;19960;-65
2022/07/27 05:11:00;;;;;;;;;;;;;;;-144.99;100.00;61100.13;5054049;28;19966;-64
2022/07/27 05:13:27;;;;;;;;;;;;;;;-144.99;100.00;61100.13;5060545;28;19964;-64
2022/07/27 05:15:53;;;;;;;;;;;;;;;-144.99;100.00;61100.13;5064736;28;20153;-64
2022/07/27 05:18:20;;;;;;;;;;;;;;;-144.99;100.00;61100.13;5065134;28;19925;-64
2022/07/27 05:20:46;;;;;;;;;;;;;;;-144.99;100.00;61100.13;5066982;28;20521;-63
2022/07/27 05:23:14;;;;;;;;;;;;;;;-144.99;100.00;61100.13;5064851;28;20334;-64
2022/07/27 05:25:41;;;;;;;;;;;;;;;-144.99;100.00;61100.13;5067234;28;20446;-64
2022/07/27 05:28:07;;;;;;;;;;;;;;;-144.99;100.00;61100.13;5064620;28;19968;-64
2022/07/27 05:30:34;;;;;;;;;;;;;;;-144.99;100.00;61100.13;5065056;28;19925;-64
2022/07/27 05:33:00;;;;;;;;;;;;;;;-144.99;100.00;61100.13;5064068;28;19928;-64
2022/07/27 05:35:27;;;;;;;;;;;;;;;-144.99;100.00;61100.13;5070347;28;20016;-63
2022/07/27 05:37:53;;;;;;;;;;;;;;;-144.99;100.00;61100.13;5069214;28;19936;-64
2022/07/27 05:40:21;;;;;;;;;;;;;;;-144.99;100.00;61100.13;5070737;28;19963;-64
2022/07/27 05:42:47;;;;;;;;;;;;;;;-144.99;100.00;61100.13;5068289;28;20296;-64
2022/07/27 05:45:14;;;;;;;;;;;;;;;-144.99;100.00;61100.13;5060362;28;20003;-64
2022/07/27 05:47:40;;;;;;;;;;;;;;;-144.99;100.00;61100.13;5067694;28;20367;-64
2022/07/27 05:50:07;;;;;;;;;;;;;;;-144.99;100.00;61100.13;5063101;28;19992;-65
2022/07/27 05:52:34;;;;;;;;;;;;;;;-144.99;100.00;61100.13;5049071;28;20023;-63
2022/07/27 05:55:01;;;;;;;;;;;;;;;-144.99;100.00;61100.13;5070459;28;20311;-63
2022/07/27 05:57:29;;;;;;;;;;;;;;;-144.99;100.00;61100.13;5067042;28;19925;-63
2022/07/27 05:59:57;;;;;;;;;;;;;;;-144.99;100.00;61100.13;5068837;28;20011;-64
2022/07/27 06:02:23;;;;;;;;;;;;;;;-144.99;100.00;61100.13;5070551;28;19932;-63
2022/07/27 06:04:50;;;;;;;;;;;;;;;-144.99;100.00;61100.13;5070914;28;20171;-63
2022/07/27 06:10:11;;;;;;;;;;;;;;;-144.99;100.00;61100.13;5016368;28;19925;-64
2022/07/27 06:12:41;;;;;;;;;;;;;;;-144.99;100.00;61100.13;5056365;28;20390;-63
2022/07/27 06:15:08;;;;;;;;;;;;;;;-144.99;100.00;61100.13;5066082;28;19973;-64
2022/07/27 06:17:35;;;;;;;;;;;;;;;-144.99;100.00;61100.13;5067971;28;19955;-64
2022/07/27 06:20:02;;;;;;;;;;;;;;;-144.99;100.00;61100.13;5065793;28;19975;-63
2022/07/27 06:22:28;;;;;;;;;;;;;;;-144.99;100.00;61100.13;5067763;28;19928;-63
2022/07/27 06:24:55;;;;;;;;;;;;;;;-144.99;100.00;61100.13;5065532;28;20024;-64
2022/07/27 06:27:21;;;;;;;;;;;;;;;-144.99;100.00;61100.13;5067406;28;20007;-64
2022/07/27 06:29:49;;;;;;;;;;;;;;;-144.99;100.00;61100.13;5058872;28;19925;-64
2022/07/27 06:32:15;;;;;;;;;;;;;;;-144.99;100.00;61100.13;5062246;28;19989;-65
2022/07/27 06:34:42;;;;;;;;;;;;;;;-144.99;100.00;61100.13;5068451;28;20027;-65
2022/07/27 06:37:08;;;;;;;;;;;;;;;-144.99;100.00;61100.13;5070675;28;19966;-65
2022/07/27 06:39:35;;;;;;;;;;;;;;;-144.99;100.00;61100.13;5067948;28;19983;-63
2022/07/27 06:42:01;;;;;;;;;;;;;;;-144.99;100.00;61100.13;5070385;28;20361;-64
2022/07/27 06:44:28;;;;;;;;;;;;;;;-144.99;100.00;61100.13;5058437;28;19979;-64
2022/07/27 06:46:56;;;;;;;;;;;;;;;-144.99;100.00;61100.13;5070243;28;19940;-63
2022/07/27 06:49:22;;;;;;;;;;;;;;;-144.99;100.00;61100.13;5066696;28;19960;-63
2022/07/27 06:51:49;;;;;;;;;;;;;;;-144.99;100.00;61100.13;5059897;28;20015;-65
2022/07/27 06:54:15;;;;;;;;;;;;;;;-144.99;100.00;61100.13;5071291;28;19925;-64
2022/07/27 06:56:42;;;;;;;;;;;;;;;-144.99;100.00;61100.13;5069168;28;19971;-64
2022/07/27 06:59:08;;;;;;;;;;;;;;;-144.99;100.00;61100.13;5064299;28;19956;-65
2022/07/27 07:01:34;;;;;;;;;;;;;;;-144.99;100.00;61100.13;5060065;28;20402;-64
2022/07/27 07:04:02;;;;;;;;;;;;;;;-144.99;100.00;61100.13;5065871;28;19975;-66
2022/07/27 07:06:29;;;;;;;;;;;;;;;-144.99;100.00;61100.13;5068714;28;19959;-63
2022/07/27 07:08:55;;;;;;;;;;;;;;;-144.99;100.00;61100.13;5064864;28;19984;-65
2022/07/27 07:11:22;;;;;;;;;;;;;;;-144.99;100.00;61100.13;5060195;28;20027;-66
2022/07/27 07:13:48;;;;;;;;;;;;;;;-144.99;100.00;61100.13;5057862;28;20418;-64
2022/07/27 07:16:15;;;;;;;;;;;;;;;-144.99;100.00;61100.13;5051879;28;20436;-65
2022/07/27 07:18:41;;;;;;;;;;;;;;;-144.99;100.00;61100.13;5062107;28;19928;-65
2022/07/27 07:21:09;;;;;;;;;;;;;;;-144.99;100.00;61100.13;5066832;28;19928;-64
2022/07/27 07:23:36;;;;;;;;;;;;;;;-144.99;100.00;61100.13;5062318;28;19998;-64
2022/07/27 07:26:02;;;;;;;;;;;;;;;-144.99;100.00;61100.13;5067745;28;20451;-63
2022/07/27 07:28:29;;;;;;;;;;;;;;;-144.99;100.00;61100.13;5062502;28;20316;-64
2022/07/27 07:30:55;;;;;;;;;;;;;;;-144.99;100.00;61100.13;5061156;28;19964;-65
2022/07/27 07:33:22;;;;;;;;;;;;;;;-144.99;100.00;61100.13;5063867;28;20316;-64
2022/07/27 07:35:48;;;;;;;;;;;;;;;-144.99;100.00;61100.13;5068436;28;20475;-65
2022/07/27 07:38:16;;;;;;;;;;;;;;;-144.99;100.00;61100.13;5065703;28;19929;-64
2022/07/27 07:40:42;;;;;;;;;;;;;;;-144.99;100.00;61100.13;5068164;28;19960;-64
2022/07/27 07:43:09;;;;;;;;;;;;;;;-144.99;100.00;61100.13;5063110;28;20006;-63
2022/07/27 07:45:37;;;;;;;;;;;;;;;-144.99;100.00;61100.13;5059865;28;19971;-64
2022/07/27 07:48:03;;;;;;;;;;;;;;;-144.99;100.00;61100.13;5064625;28;19924;-63
2022/07/27 07:50:30;;;;;;;;;;;;;;;-144.99;100.00;61100.13;5057597;28;19925;-63
2022/07/27 07:52:57;;;;;;;;;;;;;;;-144.99;100.00;61100.13;5057477;28;19924;-63
2022/07/27 07:55:26;;;;;;;;;;;;;;;-144.99;100.00;61100.13;5066268;28;19975;-63
2022/07/27 07:57:52;;;;;;;;;;;;;;;-144.99;100.00;61100.13;5066173;28;19925;-64
2022/07/27 08:00:19;;;;;;;;;;;;;;;-144.99;100.00;61100.13;5066403;28;19924;-64
2022/07/27 08:02:46;;;;;;;;;;;;;;;-144.99;100.00;61100.13;5065824;28;19977;-65
2022/07/27 08:05:13;;;;;;;;;;;;;;;-144.99;100.00;61100.13;5066633;28;20226;-64
2022/07/27 08:07:40;;;;;;;;;;;;;;;-144.99;100.00;61100.13;5066614;28;19931;-65
2022/07/27 08:10:08;;;;;;;;;;;;;;;-144.99;100.00;61100.13;5056156;28;20429;-65
2022/07/27 08:12:36;;;;;;;;;;;;;;;-144.99;100.00;61100.13;5063503;28;20314;-66
2022/07/27 08:15:02;;;;;;;;;;;;;;;-144.99;100.00;61100.13;5064262;28;19928;-65
2022/07/27 08:17:29;;;;;;;;;;;;;;;-144.99;100.00;61100.13;5063912;28;19928;-65
2022/07/27 08:19:55;;;;;;;;;;;;;;;-144.99;100.00;61100.13;5063800;28;20324;-64
2022/07/27 08:22:22;;;;;;;;;;;;;;;-144.99;100.00;61100.13;5064389;28;20071;-63
2022/07/27 08:24:48;;;;;;;;;;;;;;;-144.99;100.00;61100.13;5062180;28;19928;-65
2022/07/27 08:27:14;;;;;;;;;;;;;;;-144.99;100.00;61100.13;5063625;28;20231;-65
2022/07/27 08:29:42;;;;;;;;;;;;;;;-144.99;100.00;61100.13;5057220;28;20040;-64
2022/07/27 08:32:09;;;;;;;;;;;;;;;-144.99;100.00;61100.13;5057731;28;19925;-65
2022/07/27 08:34:35;;;;;;;;;;;;;;;-144.99;100.00;61100.13;5065202;28;19977;-64
2022/07/27 08:37:02;;;;;;;;;;;;;;;-144.99;100.00;61100.13;5066262;28;20369;-65
2022/07/27 08:39:28;;;;;;;;;;;;;;;-144.99;100.00;61100.13;5064543;28;19974;-64
2022/07/27 08:41:56;;;;;;;;;;;;;;;-144.99;100.00;61100.13;5066376;28;19939;-65
2022/07/27 08:44:23;;;;;;;;;;;;;;;-144.99;100.00;61100.13;5054705;28;20404;-66
2022/07/27 08:46:51;;;;;;;;;;;;;;;-144.99;100.00;61100.13;5059830;28;19956;-64
2022/07/27 08:49:18;;;;;;;;;;;;;;;-144.99;100.00;61100.13;5059564;28;20163;-63
2022/07/27 08:51:45;;;;;;;;;;;;;;;-144.99;100.00;61100.13;5055182;28;19928;-63
2022/07/27 08:54:12;;;;;;;;;;;;;;;-144.99;100.00;61100.13;5063659;28;19931;-64
2022/07/27 08:56:39;;;;;;;;;;;;;;;-144.99;100.00;61100.13;5064580;28;19932;-64
2022/07/27 08:59:05;;;;;;;;;;;;;;;-144.99;100.00;61100.13;5062335;28;19971;-65
2022/07/27 09:01:32;;;;;;;;;;;;;;;-144.99;100.00;61100.13;5065960;28;20019;-64
2022/07/27 09:04:00;;;;;;;;;;;;;;;-144.99;100.00;61100.13;5063847;28;20292;-63
2022/07/27 09:06:43;;;;;;;;;;;;;;;-144.99;100.00;61100.13;5075392;22;20434;-65
2022/07/27 09:09:10;;;;;;;;;;;;;;;-144.99;100.00;61100.13;5070873;28;19925;-65
2022/07/27 09:11:37;;;;;;;;;;;;;;;-144.99;100.00;61100.13;5073072;28;19924;-65
2022/07/27 09:14:04;;;;;;;;;;;;;;;-144.99;100.00;61100.13;5074472;28;19988;-65
2022/07/27 09:16:30;;;;;;;;;;;;;;;-144.99;100.00;61100.13;5073914;28;19985;-65
2022/07/27 09:18:58;;;;;;;;;;;;;;;-144.99;100.00;61100.13;5076925;28;20037;-65
2022/07/27 09:21:27;;;;;;;;;;;;;;;-144.99;100.00;61100.13;5074684;28;20428;-67
2022/07/27 09:23:54;;;;;;;;;;;;;;;-144.99;100.00;61100.13;5076675;28;19924;-65
2022/07/27 09:26:22;;;;;;;;;;;;;;;-144.99;100.00;61100.13;5075449;28;19935;-65
2022/07/27 09:28:53;;;;;;;;;;;;;;;-144.99;100.00;61100.13;5076286;28;19924;-65
2022/07/27 09:31:19;;;;;;;;;;;;;;;-144.99;100.00;61100.13;5069769;28;19925;-66
2022/07/27 09:33:47;;;;;;;;;;;;;;;-144.99;100.00;61100.13;5073219;28;19955;-66
2022/07/27 09:36:14;;;;;;;;;;;;;;;-144.99;100.00;61100.13;5085434;28;19955;-64
2022/07/27 09:38:52;;;;;;;;;;;;;;;-144.99;100.00;61100.13;5073732;28;20034;-65
2022/07/27 09:41:18;;;;;;;;;;;;;;;-144.99;100.00;61100.13;5075781;28;20422;-70
2022/07/27 09:43:46;;;;;;;;;;;;;;;-144.99;100.00;61100.13;5065134;28;19929;-67
2022/07/27 09:46:13;;;;;;;;;;;;;;;-144.99;100.00;61100.13;5068164;28;20167;-69
2022/07/27 09:48:39;;;;;;;;;;;;;;;-144.99;100.00;61100.13;5071590;28;19935;-67
2022/07/27 09:51:07;;;;;;;;;;;;;;;-144.99;100.00;61100.13;5072643;28;19930;-68
2022/07/27 09:53:34;;;;;;;;;;;;;;;-144.99;100.00;61100.13;5079201;28;21146;-67
2022/07/27 09:56:04;;;;;;;;;;;;;;;-144.99;100.00;61100.13;5082047;28;19940;-68
2022/07/27 09:58:45;;;;;;;;;;;;;;;-144.99;100.00;61100.13;5070919;28;20007;-68
2022/07/27 10:01:13;;;;;;;;;;;;;;;-144.99;100.00;61100.13;5066729;28;20361;-67
2022/07/27 10:03:40;;;;;;;;;;;;;;;-144.99;100.00;61100.13;5073007;28;20004;-67
2022/07/27 10:06:07;;;;;;;;;;;;;;;-144.99;100.00;61100.13;5075514;28;20357;-70
2022/07/27 10:08:35;;;;;;;;;;;;;;;-144.99;100.00;61100.13;5074522;28;19971;-66
2022/07/27 10:11:03;;;;;;;;;;;;;;;-144.99;100.00;61100.13;5080294;28;19932;-68
2022/07/27 10:13:29;;;;;;;;;;;;;;;-144.99;100.00;61100.13;5080777;28;19967;-67
2022/07/27 10:15:56;;;;;;;;;;;;;;;-144.99;100.00;61100.13;5081573;28;19967;-67
2022/07/27 10:18:29;;;;;;;;;;;;;;;-144.99;100.00;61100.13;5078072;28;20015;-67
2022/07/27 10:20:57;;;;;;;;;;;;;;;-144.99;100.00;61100.13;5076379;28;19968;-67
2022/07/27 10:23:25;;;;;;;;;;;;;;;-144.99;100.00;61100.13;5089326;28;20343;-67
2022/07/27 10:26:06;;;;;;;;;;;;;;;-144.99;100.00;61100.13;5066131;28;19971;-67
2022/07/27 10:28:47;;;;;;;;;;;;;;;-144.99;100.00;61100.13;5077921;28;20397;-67
2022/07/27 10:31:18;;;;;;;;;;;;;;;-144.99;100.00;61100.13;5075823;28;20033;-68
2022/07/27 10:33:45;;;;;;;;;;;;;;;-144.99;100.00;61100.13;5078608;28;20296;-67
2022/07/27 10:36:14;;;;;;;;;;;;;;;-144.99;100.00;61100.13;5076755;28;19982;-69
2022/07/27 10:38:45;;;;;;;;;;;;;;;-144.99;100.00;61100.13;5074190;28;20230;-68
2022/07/27 10:41:22;;;;;;;;;;;;;;;-144.99;100.00;61100.13;5076448;28;19966;-69
2022/07/27 10:43:50;;;;;;;;;;;;;;;-144.99;100.00;61100.13;5066574;28;19929;-68
2022/07/27 10:46:19;;;;;;;;;;;;;;;-144.99;100.00;61100.13;5071190;28;20011;-68
2022/07/27 10:48:46;;;;;;;;;;;;;;;-144.99;100.00;61100.13;5073601;28;19936;-67
2022/07/27 10:51:14;;;;;;;;;;;;;;;-144.99;100.00;61100.13;5073294;28;20019;-69
2022/07/27 10:53:41;;;;;;;;;;;;;;;-144.99;100.00;61100.13;5071241;28;19924;-68
2022/07/27 10:56:09;;;;;;;;;;;;;;;-144.99;100.00;61100.13;5075900;28;19924;-68
2022/07/27 10:58:46;;;;;;;;;;;;;;;-144.99;100.00;61100.13;5073500;28;20284;-67
2022/07/27 11:01:14;;;;;;;;;;;;;;;-144.99;100.00;61100.13;5072574;28;20002;-68
2022/07/27 11:03:46;;;;;;;;;;;;;;;-144.99;100.00;61100.13;5061516;28;19929;-69
2022/07/27 11:06:18;;;;;;;;;;;;;;;-144.99;100.00;61100.13;5071001;28;19928;-67
2022/07/27 11:08:46;;;;;;;;;;;;;;;-144.99;100.00;61100.13;5086068;28;19970;-69
2022/07/27 11:11:13;;;;;;;;;;;;;;;-144.99;100.00;61100.13;5087868;28;19932;-67
2022/07/27 11:13:41;;;;;;;;;;;;;;;-144.99;100.00;61100.13;5090871;28;19924;-69
2022/07/27 11:16:08;;;;;;;;;;;;;;;-144.99;100.00;61100.13;5083973;28;20321;-70
2022/07/27 11:18:37;;;;;;;;;;;;;;;-144.99;100.00;61100.13;5089259;28;20140;-66
2022/07/27 11:21:14;;;;;;;;;;;;;;;-144.99;100.00;61100.13;5087920;28;19959;-67
2022/07/27 11:23:40;;;;;;;;;;;;;;;-144.99;100.00;61100.13;5091909;28;19975;-67
2022/07/27 11:26:07;;;;;;;;;;;;;;;-144.99;100.00;61100.13;5082432;28;19928;-70
2022/07/27 11:28:35;;;;;;;;;;;;;;;-144.99;100.00;61100.13;5089020;28;20061;-67
2022/07/27 11:31:01;;;;;;;;;;;;;;;-144.99;100.00;61100.13;5077896;28;20043;-67
2022/07/27 11:33:28;;;;;;;;;;;;;;;-144.99;100.00;61100.13;5083731;28;19968;-67
2022/07/27 11:35:56;;;;;;;;;;;;;;;-144.99;100.00;61100.13;5084201;28;19975;-67
2022/07/27 11:38:23;;;;;;;;;;;;;;;-144.99;100.00;61100.13;5083528;28;19983;-67
2022/07/27 11:40:51;;;;;;;;;;;;;;;-144.99;100.00;61100.13;5080297;28;20147;-69
2022/07/27 11:43:33;;;;;;;;;;;;;;;-144.99;100.00;61100.13;5072327;28;20027;-66
2022/07/27 11:46:11;;;;;;;;;;;;;;;-144.99;100.00;61100.13;5068546;28;19925;-67
2022/07/27 11:48:37;;;;;;;;;;;;;;;-144.99;100.00;61100.13;5081874;28;19978;-67
2022/07/27 11:51:05;;;;;;;;;;;;;;;-144.99;100.00;61100.13;5073354;28;19954;-69
2022/07/27 11:53:32;;;;;;;;;;;;;;;-144.99;100.00;61100.13;5063952;28;20019;-69
2022/07/27 11:55:58;;;;;;;;;;;;;;;-144.99;100.00;61100.13;5074391;28;19955;-65
2022/07/27 11:58:25;;;;;;;;;;;;;;;-144.99;100.00;61100.13;5074716;28;19986;-65
2022/07/27 12:00:51;;;;;;;;;;;;;;;-144.99;100.00;61100.13;5073370;28;19964;-65
2022/07/27 12:03:22;;;;;;;;;;;;;;;-144.99;100.00;61100.13;5073597;28;19979;-64
2022/07/27 12:05:49;;;;;;;;;;;;;;;-144.99;100.00;61100.13;5074846;28;20400;-66
2022/07/27 12:08:17;;;;;;;;;;;;;;;-144.99;100.00;61100.13;5072641;28;19935;-66
2022/07/27 12:10:56;;;;;;;;;;;;;;;-144.99;100.00;61100.13;5076719;28;20245;-66
2022/07/27 12:13:22;;;;;;;;;;;;;;;-144.99;100.00;61100.13;5077104;28;19974;-66
2022/07/27 12:15:56;;;;;;;;;;;;;;;-144.99;100.00;61100.13;5076945;28;19924;-66
2022/07/27 12:18:22;;;;;;;;;;;;;;;-144.99;100.00;61100.13;5075604;28;19972;-66
2022/07/27 12:20:50;;;;;;;;;;;;;;;-144.99;100.00;61100.13;5074830;28;19931;-66
2022/07/27 12:23:18;;;;;;;;;;;;;;;-144.99;100.00;61100.13;5076139;28;19935;-66
2022/07/27 12:25:45;;;;;;;;;;;;;;;-144.99;100.00;61100.13;5073946;28;19943;-66